createdAt,value
2018-11-26T00:00:32.578Z,91.70
2018-11-26T00:03:04.729Z,91.70
2018-11-26T00:05:36.150Z,91.40
2018-11-26T00:08:09.688Z,91.40
2018-11-26T00:12:00.503Z,91.10
2018-11-26T00:14:32.074Z,91.00
2018-11-26T00:17:03.473Z,90.80
2018-11-26T00:19:35.085Z,90.90
2018-11-26T00:22:06.643Z,91.20
2018-11-26T00:24:38.091Z,91.40
2018-11-26T00:27:09.520Z,91.30
2018-11-26T00:29:41.094Z,91.00
2018-11-26T00:32:12.690Z,91.10
2018-11-26T00:34:44.301Z,90.90
2018-11-26T00:37:15.739Z,91.00
2018-11-26T00:39:47.310Z,91.00
2018-11-26T00:42:18.729Z,90.80
2018-11-26T00:44:50.314Z,90.50
2018-11-26T00:47:21.754Z,90.50
2018-11-26T00:49:53.669Z,90.60
2018-11-26T00:52:25.286Z,90.60
2018-11-26T00:54:56.774Z,90.60
2018-11-26T00:57:28.387Z,90.60
2018-11-26T00:59:59.910Z,90.50
2018-11-26T01:02:31.497Z,90.60
2018-11-26T01:05:03.102Z,90.50
2018-11-26T01:07:34.615Z,90.60
2018-11-26T01:10:06.394Z,90.40
2018-11-26T01:12:37.930Z,90.70
2018-11-26T01:15:10.010Z,90.60
2018-11-26T01:17:41.413Z,90.60
2018-11-26T01:20:12.997Z,90.60
2018-11-26T01:22:44.425Z,90.50
2018-11-26T01:25:16.115Z,90.60
2018-11-26T01:27:47.595Z,90.40
2018-11-26T01:30:19.214Z,90.20
2018-11-26T01:32:50.743Z,90.30
2018-11-26T01:35:22.330Z,90.80
2018-11-26T01:37:53.807Z,91.10
2018-11-26T01:40:30.932Z,91.40
2018-11-26T01:43:02.518Z,91.30
2018-11-26T01:45:33.993Z,91.10
2018-11-26T01:48:05.622Z,91.50
2018-11-26T01:50:37.212Z,91.50
2018-11-26T01:53:09.233Z,91.20
2018-11-26T01:55:40.806Z,91.00
2018-11-26T01:58:12.248Z,91.20
2018-11-26T02:00:43.816Z,91.30
2018-11-26T02:03:15.347Z,91.50
2018-11-26T02:05:46.941Z,91.20
2018-11-26T02:08:18.474Z,91.00
2018-11-26T02:10:50.162Z,91.00
2018-11-26T02:13:21.674Z,90.90
2018-11-26T02:15:53.269Z,90.80
2018-11-26T02:18:24.782Z,90.70
2018-11-26T02:20:56.487Z,90.70
2018-11-26T02:23:28.097Z,90.70
2018-11-26T02:25:59.679Z,90.70
2018-11-26T02:28:31.217Z,90.80
2018-11-26T02:31:02.861Z,90.80
2018-11-26T02:33:34.318Z,91.00
2018-11-26T02:36:06.077Z,90.90
2018-11-26T02:38:37.745Z,91.00
2018-11-26T02:41:09.367Z,90.90
2018-11-26T02:43:40.967Z,90.70
2018-11-26T02:46:12.587Z,90.70
2018-11-26T02:48:44.123Z,90.70
2018-11-26T02:51:15.607Z,90.60
2018-11-26T02:53:47.299Z,90.60
2018-11-26T02:56:18.809Z,90.60
2018-11-26T02:58:50.409Z,90.40
2018-11-26T03:01:21.928Z,90.10
2018-11-26T03:03:53.681Z,90.00
2018-11-26T03:06:25.117Z,90.00
2018-11-26T03:08:56.649Z,90.00
2018-11-26T03:11:28.346Z,90.00
2018-11-26T03:13:59.886Z,89.90
2018-11-26T03:16:31.340Z,89.90
2018-11-26T03:19:02.934Z,90.00
2018-11-26T03:21:34.462Z,90.00
2018-11-26T03:24:06.145Z,90.00
2018-11-26T03:26:37.662Z,90.10
2018-11-26T03:29:09.254Z,90.20
2018-11-26T03:31:40.867Z,90.10
2018-11-26T03:34:12.458Z,90.10
2018-11-26T03:36:44.085Z,90.10
2018-11-26T03:39:15.676Z,90.20
2018-11-26T03:41:47.381Z,90.10
2018-11-26T03:44:18.930Z,90.10
2018-11-26T03:46:50.533Z,89.90
2018-11-26T03:49:22.159Z,90.00
2018-11-26T03:51:53.588Z,90.10
2018-11-26T03:54:25.250Z,90.20
2018-11-26T03:56:56.688Z,90.10
2018-11-26T03:59:28.260Z,90.00
2018-11-26T04:01:59.697Z,89.80
2018-11-26T04:04:31.258Z,89.60
2018-11-26T04:07:02.873Z,89.60
2018-11-26T04:09:34.373Z,88.80
2018-11-26T04:12:06.040Z,88.60
2018-11-26T04:14:37.482Z,88.50
2018-11-26T04:17:09.085Z,88.60
2018-11-26T04:19:40.589Z,88.60
2018-11-26T04:22:12.185Z,88.40
2018-11-26T04:24:43.702Z,88.50
2018-11-26T04:27:15.311Z,88.10
2018-11-26T04:29:46.818Z,88.10
2018-11-26T04:32:18.336Z,87.10
2018-11-26T04:34:49.910Z,87.10
2018-11-26T04:37:21.330Z,87.20
2018-11-26T04:39:52.913Z,87.00
2018-11-26T04:42:24.558Z,86.80
2018-11-26T04:44:56.043Z,87.00
2018-11-26T04:47:27.521Z,88.20
2018-11-26T04:49:59.234Z,87.70
2018-11-26T04:52:30.725Z,87.70
2018-11-26T04:55:02.350Z,87.70
2018-11-26T04:57:34.284Z,87.80
2018-11-26T05:00:06.829Z,87.90
2018-11-26T05:02:38.318Z,88.00
2018-11-26T05:05:11.063Z,88.00
2018-11-26T05:07:42.591Z,87.50
2018-11-26T05:10:15.305Z,87.80
2018-11-26T05:12:46.822Z,88.20
2018-11-26T05:15:18.293Z,87.80
2018-11-26T05:17:49.914Z,87.60
2018-11-26T05:20:21.300Z,87.20
2018-11-26T05:22:52.926Z,87.10
2018-11-26T05:25:24.510Z,87.30
2018-11-26T05:27:56.132Z,87.30
2018-11-26T05:30:27.790Z,87.40
2018-11-26T05:32:59.249Z,87.00
2018-11-26T05:35:30.792Z,87.10
2018-11-26T05:38:02.246Z,86.90
2018-11-26T05:40:33.669Z,87.20
2018-11-26T05:43:05.263Z,86.80
2018-11-26T05:45:36.732Z,86.50
2018-11-26T05:48:08.358Z,86.80
2018-11-26T05:50:39.918Z,86.70
2018-11-26T05:53:11.569Z,87.30
2018-11-26T05:55:43.165Z,87.20
2018-11-26T05:58:14.798Z,87.00
2018-11-26T06:00:46.577Z,86.90
2018-11-26T06:03:18.093Z,86.70
2018-11-26T06:05:49.746Z,86.40
2018-11-26T06:08:21.280Z,86.30
2018-11-26T06:10:53.039Z,86.80
2018-11-26T06:13:24.597Z,86.70
2018-11-26T06:15:56.266Z,87.70
2018-11-26T06:18:27.869Z,86.80
2018-11-26T06:20:59.347Z,86.90
2018-11-26T06:23:30.929Z,86.90
2018-11-26T06:26:02.407Z,86.70
2018-11-26T06:28:34.092Z,85.90
2018-11-26T06:31:05.691Z,86.40
2018-11-26T06:33:37.249Z,85.90
2018-11-26T06:36:08.990Z,85.70
2018-11-26T06:38:40.479Z,85.80
2018-11-26T06:41:12.158Z,86.10
2018-11-26T06:43:43.681Z,85.70
2018-11-26T06:46:15.308Z,85.10
2018-11-26T06:48:46.873Z,85.30
2018-11-26T06:51:18.480Z,85.60
2018-11-26T06:53:50.091Z,85.50
2018-11-26T06:56:21.698Z,85.70
2018-11-26T06:58:53.212Z,85.80
2018-11-26T07:01:24.661Z,85.70
2018-11-26T07:03:56.251Z,85.50
2018-11-26T07:06:27.765Z,85.50
2018-11-26T07:08:59.351Z,85.70
2018-11-26T07:11:30.881Z,85.80
2018-11-26T07:14:02.466Z,85.70
2018-11-26T07:16:33.992Z,86.00
2018-11-26T07:19:05.712Z,86.00
2018-11-26T07:21:37.246Z,85.80
2018-11-26T07:24:08.886Z,85.70
2018-11-26T07:26:40.391Z,85.40
2018-11-26T07:29:11.999Z,85.30
2018-11-26T07:31:43.620Z,85.40
2018-11-26T07:34:15.145Z,85.00
2018-11-26T07:36:46.673Z,85.50
2018-11-26T07:39:18.310Z,85.10
2018-11-26T07:41:49.824Z,84.90
2018-11-26T07:44:21.418Z,84.70
2018-11-26T07:46:52.941Z,84.90
2018-11-26T07:49:24.533Z,84.90
2018-11-26T07:51:56.041Z,85.10
2018-11-26T07:54:27.629Z,83.80
2018-11-26T07:56:59.153Z,84.30
2018-11-26T07:59:30.746Z,83.80
2018-11-26T08:02:02.389Z,84.30
2018-11-26T08:04:34.005Z,84.00
2018-11-26T08:07:05.709Z,84.00
2018-11-26T08:09:37.309Z,83.30
2018-11-26T08:12:08.750Z,83.40
2018-11-26T08:14:40.322Z,83.10
2018-11-26T08:17:11.789Z,83.10
2018-11-26T08:19:43.378Z,83.30
2018-11-26T08:22:14.886Z,83.20
2018-11-26T08:24:46.485Z,82.80
2018-11-26T08:27:17.997Z,83.50
2018-11-26T08:29:49.691Z,82.00
2018-11-26T08:32:21.206Z,82.50
2018-11-26T08:34:52.813Z,82.50
2018-11-26T08:37:29.142Z,82.50
2018-11-26T08:40:05.886Z,81.50
2018-11-26T08:42:42.477Z,82.20
2018-11-26T08:45:19.373Z,82.60
2018-11-26T08:47:55.540Z,81.70
2018-11-26T08:50:27.191Z,81.90
2018-11-26T08:52:58.691Z,81.30
2018-11-26T08:55:30.322Z,82.00
2018-11-26T08:58:01.918Z,81.50
2018-11-26T09:00:33.646Z,81.80
2018-11-26T09:03:10.348Z,81.70
2018-11-26T09:05:47.241Z,81.00
2018-11-26T09:08:18.797Z,80.70
2018-11-26T09:10:50.252Z,81.00
2018-11-26T09:13:21.688Z,80.00
2018-11-26T09:15:53.257Z,80.30
2018-11-26T09:18:24.798Z,80.60
2018-11-26T09:20:56.370Z,81.20
2018-11-26T09:23:27.921Z,81.80
2018-11-26T09:25:59.576Z,80.90
2018-11-26T09:28:31.172Z,80.60
2018-11-26T09:31:02.693Z,80.50
2018-11-26T09:33:34.109Z,80.10
2018-11-26T09:36:05.716Z,80.10
2018-11-26T09:38:37.399Z,80.20
2018-11-26T09:41:09.218Z,80.40
2018-11-26T09:43:40.693Z,81.00
2018-11-26T09:46:12.219Z,80.00
2018-11-26T09:48:43.777Z,80.00
2018-11-26T09:51:15.229Z,80.20
2018-11-26T09:53:46.650Z,80.00
2018-11-26T09:56:18.223Z,79.20
2018-11-26T09:58:49.754Z,80.10
2018-11-26T10:01:21.333Z,79.80
2018-11-26T10:03:52.872Z,79.10
2018-11-26T10:06:24.504Z,78.10
2018-11-26T10:08:56.138Z,78.70
2018-11-26T10:11:27.649Z,79.80
2018-11-26T10:13:59.246Z,79.00
2018-11-26T10:16:30.765Z,79.70
2018-11-26T10:19:02.346Z,79.70
2018-11-26T10:21:33.860Z,78.90
2018-11-26T10:24:05.466Z,79.20
2018-11-26T10:26:36.982Z,78.60
2018-11-26T10:29:08.668Z,79.30
2018-11-26T10:31:40.214Z,79.30
2018-11-26T10:34:11.877Z,78.70
2018-11-26T10:36:43.411Z,79.00
2018-11-26T10:39:15.095Z,77.80
2018-11-26T10:41:46.605Z,78.00
2018-11-26T10:44:18.083Z,78.80
2018-11-26T10:46:49.618Z,78.90
2018-11-26T10:49:21.029Z,78.70
2018-11-26T10:51:52.505Z,78.20
2018-11-26T10:54:23.935Z,79.30
2018-11-26T10:56:55.507Z,78.80
2018-11-26T10:59:26.998Z,76.90
2018-11-26T11:02:02.651Z,77.50
2018-11-26T11:04:34.181Z,77.50
2018-11-26T11:07:05.925Z,76.80
2018-11-26T11:09:37.505Z,77.10
2018-11-26T11:12:09.049Z,77.60
2018-11-26T11:14:40.488Z,77.70
2018-11-26T11:17:11.918Z,76.60
2018-11-26T11:19:43.505Z,77.00
2018-11-26T11:22:14.977Z,77.10
2018-11-26T11:24:46.605Z,76.90
2018-11-26T11:27:18.035Z,77.80
2018-11-26T11:29:49.608Z,77.10
2018-11-26T11:32:21.152Z,77.80
2018-11-26T11:34:52.723Z,78.40
2018-11-26T11:37:24.244Z,77.60
2018-11-26T11:39:55.826Z,78.00
2018-11-26T11:42:27.244Z,77.80
2018-11-26T11:44:58.844Z,78.20
2018-11-26T11:47:30.384Z,78.40
2018-11-26T11:50:01.929Z,78.10
2018-11-26T11:52:33.371Z,77.80
2018-11-26T11:55:05.191Z,77.10
2018-11-26T11:57:36.798Z,75.70
2018-11-26T12:00:18.127Z,76.70
2018-11-26T12:02:49.762Z,76.10
2018-11-26T12:05:21.356Z,76.30
2018-11-26T12:07:53.001Z,76.90
2018-11-26T12:10:24.657Z,77.70
2018-11-26T12:12:56.181Z,77.20
2018-11-26T12:15:27.819Z,76.70
2018-11-26T12:17:59.292Z,76.90
2018-11-26T12:20:30.801Z,76.30
2018-11-26T12:23:02.374Z,76.90
2018-11-26T12:25:33.816Z,76.90
2018-11-26T12:28:05.603Z,76.00
2018-11-26T12:30:40.562Z,76.10
2018-11-26T12:33:12.073Z,75.80
2018-11-26T12:35:43.678Z,74.90
2018-11-26T12:38:15.204Z,75.20
2018-11-26T12:40:46.743Z,75.50
2018-11-26T12:43:18.309Z,76.00
2018-11-26T12:45:50.221Z,75.10
2018-11-26T12:48:21.718Z,76.10
2018-11-26T12:50:53.411Z,75.10
2018-11-26T12:53:24.920Z,75.00
2018-11-26T12:55:56.463Z,75.90
2018-11-26T12:58:27.941Z,75.10
2018-11-26T13:00:59.625Z,74.90
2018-11-26T13:03:31.137Z,74.90
2018-11-26T13:06:02.715Z,75.10
2018-11-26T13:08:34.254Z,75.10
2018-11-26T13:11:05.952Z,74.70
2018-11-26T13:13:37.800Z,75.70
2018-11-26T13:16:09.115Z,76.10
2018-11-26T13:18:40.583Z,76.40
2018-11-26T13:21:12.091Z,75.10
2018-11-26T13:23:43.665Z,74.40
2018-11-26T13:26:15.262Z,75.30
2018-11-26T13:28:46.773Z,75.30
2018-11-26T13:31:18.431Z,74.40
2018-11-26T13:33:49.890Z,74.70
2018-11-26T13:36:21.304Z,74.40
2018-11-26T13:38:52.884Z,74.30
2018-11-26T13:41:24.340Z,74.40
2018-11-26T13:43:55.889Z,74.70
2018-11-26T13:46:27.423Z,74.40
2018-11-26T13:48:59.023Z,74.20
2018-11-26T13:51:30.522Z,74.20
2018-11-26T13:54:02.131Z,74.90
2018-11-26T13:56:33.638Z,75.10
2018-11-26T13:59:05.251Z,75.90
2018-11-26T14:01:36.804Z,75.50
2018-11-26T14:04:08.523Z,74.80
2018-11-26T14:06:40.092Z,74.60
2018-11-26T14:09:12.036Z,74.40
2018-11-26T14:11:43.527Z,74.30
2018-11-26T14:14:15.255Z,74.40
2018-11-26T14:16:46.726Z,75.40
2018-11-26T14:19:18.363Z,75.70
2018-11-26T14:21:49.827Z,76.30
2018-11-26T14:24:21.416Z,76.50
2018-11-26T14:26:52.930Z,75.50
2018-11-26T14:29:24.354Z,75.60
2018-11-26T14:31:56.083Z,75.80
2018-11-26T14:34:27.736Z,76.90
2018-11-26T14:36:59.251Z,77.20
2018-11-26T14:39:30.838Z,76.60
2018-11-26T14:42:02.356Z,76.70
2018-11-26T14:44:33.956Z,76.50
2018-11-26T14:47:05.486Z,76.60
2018-11-26T14:49:37.162Z,75.80
2018-11-26T14:52:09.205Z,76.00
2018-11-26T14:54:40.750Z,76.50
2018-11-26T14:57:12.447Z,77.10
2018-11-26T14:59:43.941Z,76.50
2018-11-26T15:02:15.521Z,75.60
2018-11-26T15:04:47.068Z,76.00
2018-11-26T15:07:18.487Z,75.30
2018-11-26T15:09:50.164Z,75.90
2018-11-26T15:12:23.275Z,76.80
2018-11-26T15:14:55.910Z,76.80
2018-11-26T15:17:28.943Z,76.80
2018-11-26T15:20:02.236Z,77.20
2018-11-26T15:22:33.928Z,76.90
2018-11-26T15:25:05.655Z,77.20
2018-11-26T15:27:37.208Z,77.40
2018-11-26T15:30:14.416Z,76.60
2018-11-26T15:32:45.947Z,76.90
2018-11-26T15:35:19.632Z,77.20
2018-11-26T15:37:51.306Z,77.20
2018-11-26T15:40:23.628Z,77.60
2018-11-26T15:42:56.179Z,77.70
2018-11-26T15:45:28.504Z,77.80
2018-11-26T15:48:02.665Z,77.70
2018-11-26T15:50:34.314Z,77.80
2018-11-26T15:53:06.376Z,78.00
2018-11-26T15:55:38.016Z,78.20
2018-11-26T15:58:10.452Z,78.40
2018-11-26T16:00:42.079Z,78.80
2018-11-26T16:03:13.675Z,79.10
2018-11-26T16:05:45.285Z,79.50
2018-11-26T16:08:17.916Z,79.80
2018-11-26T16:10:49.353Z,80.00
2018-11-26T16:13:20.915Z,80.00
2018-11-26T16:15:52.394Z,80.10
2018-11-26T16:18:24.450Z,80.10
2018-11-26T16:20:55.863Z,80.10
2018-11-26T16:23:27.451Z,79.90
2018-11-26T16:25:58.916Z,79.90
2018-11-26T16:28:30.550Z,79.90
2018-11-26T16:31:02.118Z,80.20
2018-11-26T16:33:33.711Z,80.20
2018-11-26T16:36:05.246Z,80.50
2018-11-26T16:38:36.871Z,80.70
2018-11-26T16:41:08.433Z,81.00
2018-11-26T16:43:40.128Z,80.90
2018-11-26T16:46:11.645Z,80.90
2018-11-26T16:48:43.154Z,81.00
2018-11-26T16:51:14.643Z,81.20
2018-11-26T16:53:46.069Z,81.30
2018-11-26T16:56:17.659Z,81.20
2018-11-26T16:58:49.206Z,81.50
2018-11-26T17:01:20.794Z,81.40
2018-11-26T17:03:52.324Z,81.20
2018-11-26T17:06:24.806Z,81.40
2018-11-26T17:08:56.467Z,81.40
2018-11-26T17:11:28.002Z,81.90
2018-11-26T17:13:59.582Z,81.90
2018-11-26T17:16:31.111Z,81.80
2018-11-26T17:19:02.621Z,82.00
2018-11-26T17:21:34.207Z,82.10
2018-11-26T17:24:05.919Z,82.10
2018-11-26T17:26:37.518Z,82.10
2018-11-26T17:29:09.392Z,82.50
2018-11-26T17:31:40.944Z,82.30
2018-11-26T17:34:12.422Z,82.30
2018-11-26T17:36:44.159Z,82.20
2018-11-26T17:39:15.696Z,82.10
2018-11-26T17:41:47.159Z,82.00
2018-11-26T17:44:18.636Z,82.10
2018-11-26T17:46:50.280Z,82.10
2018-11-26T17:49:21.952Z,82.30
2018-11-26T17:51:53.564Z,82.40
2018-11-26T17:54:25.003Z,82.40
2018-11-26T17:56:56.583Z,82.50
2018-11-26T17:59:28.143Z,82.60
2018-11-26T18:01:59.788Z,82.30
2018-11-26T18:04:31.699Z,82.50
2018-11-26T18:07:03.268Z,82.60
2018-11-26T18:09:34.976Z,82.50
2018-11-26T18:12:06.550Z,82.10
2018-11-26T18:14:38.070Z,82.00
2018-11-26T18:17:10.429Z,82.30
2018-11-26T18:19:41.920Z,82.70
2018-11-26T18:22:13.556Z,82.50
2018-11-26T18:24:45.017Z,82.50
2018-11-26T18:27:16.428Z,82.80
2018-11-26T18:29:47.919Z,82.70
2018-11-26T18:32:19.604Z,83.00
2018-11-26T18:34:51.126Z,83.00
2018-11-26T18:37:22.710Z,83.10
2018-11-26T18:39:54.231Z,83.00
2018-11-26T18:42:25.828Z,82.80
2018-11-26T18:44:57.339Z,82.70
2018-11-26T18:47:28.931Z,82.80
2018-11-26T18:50:00.452Z,82.60
2018-11-26T18:52:32.139Z,82.80
2018-11-26T18:55:03.672Z,82.90
2018-11-26T18:57:35.413Z,83.20
2018-11-26T19:00:18.079Z,83.40
2018-11-26T19:02:49.593Z,83.50
2018-11-26T19:05:21.617Z,83.50
2018-11-26T19:07:53.127Z,83.40
2018-11-26T19:10:28.329Z,83.80
2018-11-26T19:13:03.257Z,83.60
2018-11-26T19:15:39.923Z,83.40
2018-11-26T19:18:19.708Z,83.50
2018-11-26T19:20:51.333Z,83.50
2018-11-26T19:23:23.279Z,83.90
2018-11-26T19:25:55.230Z,84.10
2018-11-26T19:28:26.736Z,83.90
2018-11-26T19:30:58.400Z,83.50
2018-11-26T19:33:30.035Z,83.50
2018-11-26T19:36:01.462Z,83.70
2018-11-26T19:38:33.076Z,83.60
2018-11-26T19:41:04.650Z,83.80
2018-11-26T19:43:36.247Z,83.90
2018-11-26T19:46:08.099Z,84.10
2018-11-26T19:48:39.762Z,84.20
2018-11-26T19:51:11.358Z,84.00
2018-11-26T19:53:42.896Z,84.30
2018-11-26T19:56:14.573Z,84.60
2018-11-26T19:58:46.109Z,84.20
2018-11-26T20:01:17.725Z,84.10
2018-11-26T20:03:55.106Z,84.30
2018-11-26T20:06:27.263Z,84.40
2018-11-26T20:09:00.783Z,85.40
2018-11-26T20:11:33.285Z,84.80
2018-11-26T20:14:03.902Z,84.70
2018-11-26T20:16:41.659Z,84.40
2018-11-26T20:19:13.176Z,84.10
2018-11-26T20:21:44.652Z,84.30
2018-11-26T20:24:16.268Z,84.10
2018-11-26T20:26:47.689Z,83.80
2018-11-26T20:29:19.364Z,83.40
2018-11-26T20:31:50.856Z,83.90
2018-11-26T20:34:22.482Z,83.60
2018-11-26T20:36:53.963Z,83.50
2018-11-26T20:39:25.592Z,83.80
2018-11-26T20:41:57.107Z,84.10
2018-11-26T20:44:28.691Z,84.20
2018-11-26T20:47:00.263Z,84.40
2018-11-26T20:49:31.915Z,84.50
2018-11-26T20:52:03.446Z,84.60
2018-11-26T20:54:35.500Z,84.80
2018-11-26T20:57:07.208Z,84.70
2018-11-26T20:59:38.878Z,84.80
2018-11-26T21:02:10.418Z,84.90
2018-11-26T21:04:42.228Z,85.20
2018-11-26T21:07:13.843Z,84.90
2018-11-26T21:09:45.578Z,85.20
2018-11-26T21:12:17.221Z,84.90
2018-11-26T21:14:48.899Z,85.00
2018-11-26T21:17:20.692Z,85.10
2018-11-26T21:19:52.313Z,84.90
2018-11-26T21:22:23.997Z,85.00
2018-11-26T21:24:55.631Z,85.00
2018-11-26T21:27:27.311Z,85.00
2018-11-26T21:29:58.940Z,85.20
2018-11-26T21:32:30.900Z,85.30
2018-11-26T21:35:02.531Z,84.60
2018-11-26T21:37:34.169Z,84.70
2018-11-26T21:40:07.350Z,84.50
2018-11-26T21:42:39.059Z,84.70
2018-11-26T21:45:13.767Z,84.50
2018-11-26T21:47:45.359Z,84.30
2018-11-26T21:50:17.451Z,84.50
2018-11-26T21:52:49.201Z,84.20
2018-11-26T21:55:20.827Z,83.70
2018-11-26T21:57:52.578Z,84.00
2018-11-26T22:00:31.291Z,83.80
2018-11-26T22:03:08.888Z,83.90
2018-11-26T22:05:41.878Z,84.00
2018-11-26T22:08:13.910Z,83.80
2018-11-26T22:10:46.136Z,83.70
2018-11-26T22:13:20.638Z,83.60
2018-11-26T22:15:52.207Z,83.40
2018-11-26T22:18:23.944Z,83.50
2018-11-26T22:20:55.419Z,83.50
2018-11-26T22:23:27.108Z,83.60
2018-11-26T22:25:58.740Z,83.60
2018-11-26T22:28:30.476Z,83.10
2018-11-26T22:31:02.119Z,83.40
2018-11-26T22:33:33.808Z,83.50
2018-11-26T22:36:05.542Z,83.40
2018-11-26T22:38:37.208Z,83.20
2018-11-26T22:41:08.952Z,83.40
2018-11-26T22:43:40.411Z,83.50
2018-11-26T22:46:15.990Z,83.30
2018-11-26T22:48:43.614Z,82.80
2018-11-26T22:51:15.040Z,82.70
2018-11-26T22:53:46.618Z,82.50
2018-11-26T22:56:18.098Z,82.80
2018-11-26T22:58:49.719Z,82.80
2018-11-26T23:01:21.321Z,83.00
2018-11-26T23:03:52.887Z,83.10
2018-11-26T23:06:24.593Z,83.40
2018-11-26T23:08:56.166Z,83.70
2018-11-26T23:11:27.795Z,83.50
2018-11-26T23:13:59.261Z,83.10
2018-11-26T23:16:30.849Z,83.00
2018-11-26T23:19:02.363Z,83.10
2018-11-26T23:21:33.956Z,83.00
2018-11-26T23:24:05.954Z,82.70
2018-11-26T23:26:37.627Z,82.70
2018-11-26T23:29:09.239Z,83.10
2018-11-26T23:31:40.755Z,83.10
2018-11-26T23:34:12.451Z,84.00
2018-11-26T23:36:44.007Z,83.50
2018-11-26T23:39:15.655Z,83.90
2018-11-26T23:41:47.279Z,83.90
2018-11-26T23:44:18.793Z,83.80
2018-11-26T23:46:50.366Z,83.80
2018-11-26T23:49:21.907Z,83.70
2018-11-26T23:51:53.582Z,84.40
2018-11-26T23:54:25.013Z,84.60
2018-11-26T23:56:56.592Z,83.90
2018-11-26T23:59:28.122Z,83.90
